createdAt,value
2019-02-21T00:01:47.661Z,15.68
2019-02-21T00:04:16.149Z,17.02
2019-02-21T00:06:44.632Z,16.62
2019-02-21T00:09:13.185Z,16.97
2019-02-21T00:11:41.565Z,16.60
2019-02-21T00:14:09.973Z,16.70
2019-02-21T00:16:38.380Z,15.95
2019-02-21T00:19:06.808Z,16.37
2019-02-21T00:21:35.460Z,17.32
2019-02-21T00:24:03.879Z,16.27
2019-02-21T00:26:32.314Z,16.60
2019-02-21T00:29:01.042Z,16.90
2019-02-21T00:31:29.422Z,17.12
2019-02-21T00:33:58.081Z,16.55
2019-02-21T00:36:26.499Z,17.10
2019-02-21T00:38:54.914Z,16.45
2019-02-21T00:41:23.621Z,17.82
2019-02-21T00:43:52.012Z,16.73
2019-02-21T00:46:20.421Z,15.83
2019-02-21T00:48:49.076Z,16.73
2019-02-21T00:51:17.532Z,16.95
2019-02-21T00:53:46.192Z,16.35
2019-02-21T00:56:14.625Z,15.88
2019-02-21T00:58:43.293Z,16.77
2019-02-21T01:01:11.713Z,16.75
2019-02-21T01:03:40.120Z,17.77
2019-02-21T01:06:08.539Z,16.57
2019-02-21T01:08:37.192Z,16.85
2019-02-21T01:11:06.113Z,16.57
2019-02-21T01:13:34.516Z,16.93
2019-02-21T01:16:02.951Z,17.20
2019-02-21T01:18:31.354Z,16.42
2019-02-21T01:20:59.774Z,16.02
2019-02-21T01:23:28.217Z,16.73
2019-02-21T01:25:56.613Z,17.32
2019-02-21T01:28:25.021Z,16.23
2019-02-21T01:30:57.083Z,16.27
2019-02-21T01:33:24.089Z,16.37
2019-02-21T01:35:52.499Z,17.75
2019-02-21T01:38:20.982Z,16.82
2019-02-21T01:40:49.383Z,17.60
2019-02-21T01:43:18.109Z,16.82
2019-02-21T01:45:46.795Z,17.80
2019-02-21T01:48:15.473Z,17.55
2019-02-21T01:50:43.887Z,16.57
2019-02-21T01:53:12.307Z,17.45
2019-02-21T01:55:40.710Z,17.73
2019-02-21T01:58:09.699Z,17.55
2019-02-21T02:00:39.679Z,18.20
2019-02-21T02:03:08.395Z,17.77
2019-02-21T02:05:37.058Z,16.20
2019-02-21T02:08:05.462Z,17.05
2019-02-21T02:10:33.863Z,17.55
2019-02-21T02:13:02.289Z,16.80
2019-02-21T02:15:30.711Z,16.57
2019-02-21T02:17:59.124Z,16.48
2019-02-21T02:20:27.528Z,17.62
2019-02-21T02:22:56.191Z,17.00
2019-02-21T02:25:24.843Z,16.95
2019-02-21T02:27:53.256Z,17.20
2019-02-21T02:30:22.003Z,17.73
2019-02-21T02:32:50.421Z,17.62
2019-02-21T02:35:18.824Z,18.15
2019-02-21T02:37:47.246Z,17.15
2019-02-21T02:40:15.917Z,18.35
2019-02-21T02:42:44.343Z,17.80
2019-02-21T02:45:12.827Z,19.25
2019-02-21T02:47:41.300Z,19.57
2019-02-21T02:50:10.094Z,18.42
2019-02-21T02:52:38.586Z,19.00
2019-02-21T02:55:07.166Z,19.65
2019-02-21T02:57:35.630Z,18.73
2019-02-21T03:00:06.431Z,19.57
2019-02-21T03:02:34.845Z,20.23
2019-02-21T03:05:03.260Z,20.40
2019-02-21T03:07:31.664Z,20.05
2019-02-21T03:10:00.137Z,19.90
2019-02-21T03:12:28.672Z,20.68
2019-02-21T03:14:57.089Z,20.68
2019-02-21T03:17:25.754Z,20.23
2019-02-21T03:19:54.159Z,20.55
2019-02-21T03:22:22.599Z,19.65
2019-02-21T03:24:51.063Z,20.55
2019-02-21T03:27:19.861Z,20.90
2019-02-21T03:29:48.266Z,20.88
2019-02-21T03:32:16.703Z,21.23
2019-02-21T03:34:45.508Z,21.52
2019-02-21T03:37:14.103Z,20.88
2019-02-21T03:39:42.515Z,21.87
2019-02-21T03:42:11.020Z,21.30
2019-02-21T03:44:39.422Z,21.00
2019-02-21T03:47:08.098Z,21.15
2019-02-21T03:49:36.755Z,21.17
2019-02-21T03:52:05.178Z,20.55
2019-02-21T03:54:33.856Z,21.25
2019-02-21T03:57:02.266Z,22.67
2019-02-21T03:59:30.677Z,21.10
2019-02-21T04:02:05.415Z,22.75
2019-02-21T04:04:29.641Z,21.87
2019-02-21T04:06:58.058Z,20.92
2019-02-21T04:09:26.459Z,21.85
2019-02-21T04:11:54.872Z,21.68
2019-02-21T04:14:23.291Z,22.35
2019-02-21T04:16:51.715Z,22.00
2019-02-21T04:19:20.115Z,22.25
2019-02-21T04:21:48.517Z,22.60
2019-02-21T04:24:16.938Z,22.98
2019-02-21T04:26:45.345Z,21.97
2019-02-21T04:29:13.771Z,22.50
2019-02-21T04:31:42.185Z,23.38
2019-02-21T04:34:10.609Z,23.27
2019-02-21T04:36:39.014Z,22.87
2019-02-21T04:39:07.436Z,23.27
2019-02-21T04:41:36.226Z,22.60
2019-02-21T04:44:04.703Z,21.77
2019-02-21T04:46:33.072Z,21.52
2019-02-21T04:49:01.483Z,22.75
2019-02-21T04:51:29.905Z,22.75
2019-02-21T04:53:58.319Z,21.52
2019-02-21T04:56:27.013Z,22.65
2019-02-21T04:58:55.453Z,23.18
2019-02-21T05:01:23.842Z,22.40
2019-02-21T05:03:52.238Z,21.60
2019-02-21T05:06:20.947Z,23.25
2019-02-21T05:08:49.352Z,23.02
2019-02-21T05:11:17.779Z,22.27
2019-02-21T05:13:46.487Z,22.87
2019-02-21T05:16:15.206Z,23.75
2019-02-21T05:18:43.967Z,22.75
2019-02-21T05:21:12.377Z,22.75
2019-02-21T05:23:40.783Z,22.55
2019-02-21T05:26:11.113Z,23.22
2019-02-21T05:28:41.248Z,22.30
2019-02-21T05:31:11.789Z,22.05
2019-02-21T05:33:56.841Z,23.02
2019-02-21T05:36:43.363Z,22.75
2019-02-21T05:39:25.357Z,22.95
2019-02-21T05:42:01.625Z,21.62
2019-02-21T05:44:33.637Z,22.22
2019-02-21T05:47:06.582Z,21.70
2019-02-21T05:49:39.667Z,22.48
2019-02-21T05:52:18.762Z,22.17
2019-02-21T05:54:48.819Z,22.32
2019-02-21T05:57:24.790Z,22.02
2019-02-21T06:00:11.395Z,22.65
2019-02-21T06:02:59.682Z,21.85
2019-02-21T06:05:35.699Z,22.10
2019-02-21T06:08:08.434Z,22.98
2019-02-21T06:10:44.043Z,23.60
2019-02-21T06:13:23.260Z,22.77
2019-02-21T06:15:55.775Z,21.25
2019-02-21T06:18:31.941Z,22.02
2019-02-21T06:21:16.944Z,22.73
2019-02-21T06:23:49.701Z,22.10
2019-02-21T06:26:19.758Z,23.20
2019-02-21T06:28:49.823Z,21.42
2019-02-21T06:31:18.229Z,22.55
2019-02-21T06:33:49.328Z,24.07
2019-02-21T06:36:16.792Z,22.55
2019-02-21T06:38:45.218Z,22.17
2019-02-21T06:41:13.619Z,21.95
2019-02-21T06:43:42.124Z,22.07
2019-02-21T06:46:10.543Z,22.45
2019-02-21T06:48:38.941Z,22.00
2019-02-21T06:51:07.366Z,22.10
2019-02-21T06:53:35.781Z,23.27
2019-02-21T06:56:04.178Z,22.17
2019-02-21T06:58:32.608Z,21.73
2019-02-21T07:01:01.026Z,21.97
2019-02-21T07:03:29.426Z,23.25
2019-02-21T07:05:58.115Z,22.60
2019-02-21T07:08:26.517Z,22.02
2019-02-21T07:11:05.439Z,23.10
2019-02-21T07:13:27.008Z,22.05
2019-02-21T07:15:55.635Z,21.55
2019-02-21T07:18:24.043Z,22.62
2019-02-21T07:20:52.787Z,22.32
2019-02-21T07:23:21.770Z,22.05
2019-02-21T07:25:51.362Z,21.02
2019-02-21T07:28:19.771Z,22.25
2019-02-21T07:30:49.071Z,21.77
2019-02-21T07:33:27.759Z,20.25
2019-02-21T07:35:48.019Z,21.57
2019-02-21T07:38:17.286Z,21.05
2019-02-21T07:40:45.841Z,21.70
2019-02-21T07:43:14.249Z,22.15
2019-02-21T07:45:42.669Z,22.02
2019-02-21T07:48:11.078Z,22.32
2019-02-21T07:50:39.498Z,22.87
2019-02-21T07:53:07.910Z,21.48
2019-02-21T07:55:36.330Z,22.35
2019-02-21T07:58:04.804Z,22.67
2019-02-21T08:00:33.218Z,21.70
2019-02-21T08:03:01.629Z,21.68
2019-02-21T08:05:30.051Z,21.85
2019-02-21T08:07:58.471Z,21.25
2019-02-21T08:10:33.487Z,22.22
2019-02-21T08:12:57.384Z,21.93
2019-02-21T08:15:27.760Z,23.32
2019-02-21T08:17:55.876Z,22.42
2019-02-21T08:20:33.645Z,22.82
2019-02-21T08:22:54.423Z,23.27
2019-02-21T08:25:22.831Z,22.98
2019-02-21T08:27:51.579Z,23.15
2019-02-21T08:30:19.977Z,23.67
2019-02-21T08:33:01.538Z,23.35
2019-02-21T08:35:31.235Z,24.87
2019-02-21T08:37:59.904Z,23.40
2019-02-21T08:40:28.330Z,23.40
2019-02-21T08:42:56.733Z,23.52
2019-02-21T08:45:25.208Z,23.90
2019-02-21T08:47:53.644Z,22.82
2019-02-21T08:50:22.529Z,21.35
2019-02-21T08:52:51.100Z,23.87
2019-02-21T08:55:19.905Z,24.35
2019-02-21T08:57:48.603Z,22.15
2019-02-21T09:00:17.361Z,22.75
2019-02-21T09:02:45.789Z,22.10
2019-02-21T09:05:14.431Z,21.95
2019-02-21T09:07:42.909Z,22.00
2019-02-21T09:10:12.669Z,21.85
2019-02-21T09:12:41.424Z,23.02
2019-02-21T09:15:15.211Z,22.35
2019-02-21T09:17:43.702Z,22.07
2019-02-21T09:20:12.911Z,22.70
2019-02-21T09:22:41.312Z,22.95
2019-02-21T09:25:11.669Z,23.20
2019-02-21T09:27:40.083Z,23.73
2019-02-21T09:30:13.827Z,23.15
2019-02-21T09:32:42.314Z,23.30
2019-02-21T09:35:10.745Z,23.70
2019-02-21T09:37:39.298Z,22.80
2019-02-21T09:40:10.830Z,22.42
2019-02-21T09:42:39.693Z,22.52
2019-02-21T09:45:10.926Z,23.00
2019-02-21T09:47:39.335Z,22.27
2019-02-21T09:50:09.383Z,21.50
2019-02-21T09:52:37.818Z,21.42
2019-02-21T09:55:09.523Z,21.82
2019-02-21T09:57:38.257Z,22.93
2019-02-21T10:00:13.069Z,22.07
2019-02-21T10:02:42.185Z,22.05
2019-02-21T10:05:10.749Z,21.87
2019-02-21T10:07:39.176Z,21.62
2019-02-21T10:10:10.635Z,22.22
2019-02-21T10:12:39.063Z,21.77
2019-02-21T10:15:10.130Z,22.27
2019-02-21T10:17:38.909Z,21.23
2019-02-21T10:20:12.851Z,21.85
2019-02-21T10:22:41.310Z,23.15
2019-02-21T10:25:13.053Z,21.23
2019-02-21T10:27:41.476Z,21.93
2019-02-21T10:30:13.503Z,22.02
2019-02-21T10:35:09.781Z,22.05
2019-02-21T10:37:38.213Z,22.77
2019-02-21T10:40:12.335Z,21.68
2019-02-21T10:42:41.034Z,20.97
2019-02-21T10:45:15.186Z,22.17
2019-02-21T10:47:43.679Z,21.87
2019-02-21T10:50:17.227Z,21.87
2019-02-21T10:52:45.644Z,22.02
2019-02-21T10:55:14.815Z,22.07
2019-02-21T10:57:45.329Z,23.02
2019-02-21T11:00:16.288Z,22.00
2019-02-21T11:02:44.734Z,22.50
2019-02-21T11:05:13.481Z,23.20
2019-02-21T11:07:41.901Z,23.07
2019-02-21T11:10:12.852Z,23.40
2019-02-21T11:12:41.275Z,22.80
2019-02-21T11:15:14.678Z,23.73
2019-02-21T11:17:43.121Z,23.27
2019-02-21T11:20:14.155Z,22.40
2019-02-21T11:22:42.581Z,24.00
2019-02-21T11:25:12.034Z,22.05
2019-02-21T11:27:40.935Z,23.60
2019-02-21T11:30:14.456Z,23.67
2019-02-21T11:32:42.916Z,25.08
2019-02-21T11:35:11.471Z,24.55
2019-02-21T11:37:43.384Z,22.75
2019-02-21T11:40:12.560Z,22.48
2019-02-21T11:42:40.990Z,24.15
2019-02-21T11:45:17.399Z,23.38
2019-02-21T11:47:46.191Z,23.90
2019-02-21T11:50:17.232Z,24.12
2019-02-21T11:52:46.019Z,24.82
2019-02-21T11:55:22.467Z,24.67
2019-02-21T11:57:50.946Z,24.55
2019-02-21T12:00:24.442Z,22.93
2019-02-21T12:02:52.850Z,24.50
2019-02-21T12:05:30.688Z,25.35
2019-02-21T12:07:51.860Z,24.18
2019-02-21T12:10:20.313Z,24.82
2019-02-21T12:12:48.744Z,24.43
2019-02-21T12:15:17.644Z,24.02
2019-02-21T12:17:46.051Z,24.55
2019-02-21T12:20:18.546Z,25.05
2019-02-21T12:22:47.307Z,25.20
2019-02-21T12:25:21.495Z,25.70
2019-02-21T12:27:49.904Z,24.20
2019-02-21T12:30:20.344Z,24.82
2019-02-21T12:32:48.758Z,24.65
2019-02-21T12:35:28.779Z,25.35
2019-02-21T12:37:47.343Z,25.82
2019-02-21T12:40:20.064Z,23.90
2019-02-21T12:42:48.493Z,25.92
2019-02-21T12:45:21.186Z,25.35
2019-02-21T12:47:53.526Z,26.15
2019-02-21T12:50:19.753Z,26.02
2019-02-21T12:52:48.196Z,26.73
2019-02-21T12:55:27.177Z,27.82
2019-02-21T12:57:46.761Z,29.15
2019-02-21T13:00:19.943Z,28.50
2019-02-21T13:02:48.361Z,28.42
2019-02-21T13:05:16.765Z,27.32
2019-02-21T13:07:45.504Z,29.35
2019-02-21T13:10:21.693Z,29.77
2019-02-21T13:12:50.454Z,28.62
2019-02-21T13:15:18.887Z,28.47
2019-02-21T13:17:47.310Z,29.07
2019-02-21T13:20:15.996Z,29.10
2019-02-21T13:22:44.424Z,29.85
2019-02-21T13:25:17.158Z,30.20
2019-02-21T13:27:45.914Z,31.75
2019-02-21T13:30:19.269Z,30.15
2019-02-21T13:32:47.678Z,30.23
2019-02-21T13:35:16.476Z,30.48
2019-02-21T13:37:44.975Z,29.55
2019-02-21T13:40:16.974Z,31.33
2019-02-21T13:45:17.386Z,29.25
2019-02-21T13:47:45.343Z,30.05
2019-02-21T13:50:17.834Z,28.95
2019-02-21T13:52:46.260Z,28.05
2019-02-21T13:55:14.678Z,28.35
2019-02-21T13:57:43.363Z,29.32
2019-02-21T14:00:20.444Z,29.72
2019-02-21T14:02:49.010Z,28.55
2019-02-21T14:05:17.743Z,29.05
2019-02-21T14:07:46.501Z,28.38
2019-02-21T14:10:15.356Z,29.52
2019-02-21T14:12:43.773Z,28.67
2019-02-21T14:15:18.096Z,29.32
2019-02-21T14:17:46.927Z,30.37
2019-02-21T14:20:15.898Z,28.32
2019-02-21T14:22:44.287Z,31.25
2019-02-21T14:25:12.707Z,31.30
2019-02-21T14:27:41.106Z,32.33
2019-02-21T14:30:19.427Z,33.90
2019-02-21T14:32:48.220Z,32.93
2019-02-21T14:35:17.032Z,35.88
2019-02-21T14:37:45.435Z,36.53
2019-02-21T14:40:15.389Z,37.17
2019-02-21T14:42:43.824Z,34.73
2019-02-21T14:45:15.043Z,37.08
2019-02-21T14:47:43.448Z,37.63
2019-02-21T14:50:12.642Z,37.28
2019-02-21T14:52:41.047Z,36.17
2019-02-21T14:55:11.807Z,37.28
2019-02-21T14:57:41.313Z,37.50
2019-02-21T15:00:21.584Z,39.20
2019-02-21T15:02:49.994Z,40.92
2019-02-21T15:05:19.255Z,42.60
2019-02-21T15:07:47.940Z,42.05
2019-02-21T15:10:16.482Z,43.55
2019-02-21T15:12:45.213Z,38.70
2019-02-21T15:15:16.715Z,44.25
2019-02-21T15:17:45.135Z,44.93
2019-02-21T15:20:15.618Z,43.38
2019-02-21T15:22:44.354Z,42.88
2019-02-21T15:25:13.045Z,42.17
2019-02-21T15:27:41.471Z,41.42
2019-02-21T15:30:18.274Z,37.25
2019-02-21T15:32:46.698Z,40.40
2019-02-21T15:35:15.290Z,40.65
2019-02-21T15:37:45.090Z,38.35
2019-02-21T15:40:14.176Z,38.48
2019-02-21T15:42:42.586Z,37.95
2019-02-21T15:45:23.347Z,35.85
2019-02-21T15:47:49.718Z,38.28
2019-02-21T15:50:19.910Z,38.65
2019-02-21T15:52:48.719Z,40.92
2019-02-21T15:55:18.461Z,40.20
2019-02-21T15:57:46.893Z,40.90
2019-02-21T16:00:20.144Z,40.17
2019-02-21T16:02:48.605Z,38.55
2019-02-21T16:05:17.312Z,39.50
2019-02-21T16:07:45.724Z,40.75
2019-02-21T16:10:20.058Z,40.33
2019-02-21T16:12:48.770Z,39.45
2019-02-21T16:15:18.176Z,40.28
2019-02-21T16:17:46.592Z,39.20
2019-02-21T16:20:16.681Z,40.50
2019-02-21T16:22:45.449Z,38.17
2019-02-21T16:25:28.079Z,40.28
2019-02-21T16:27:56.495Z,33.10
2019-02-21T16:30:24.900Z,31.42
2019-02-21T16:32:53.650Z,33.42
2019-02-21T16:35:22.051Z,33.40
2019-02-21T16:37:50.839Z,31.77
2019-02-21T16:40:20.785Z,32.50
2019-02-21T16:42:49.528Z,32.65
2019-02-21T16:45:21.919Z,32.98
2019-02-21T16:47:50.595Z,31.93
2019-02-21T16:50:29.309Z,25.30
2019-02-21T16:52:49.484Z,25.95
2019-02-21T16:55:20.052Z,25.32
2019-02-21T16:57:48.422Z,24.43
2019-02-21T17:00:22.597Z,21.97
2019-02-21T17:02:51.093Z,20.65
2019-02-21T17:05:19.825Z,20.88
2019-02-21T17:07:48.231Z,20.70
2019-02-21T17:10:17.299Z,20.90
2019-02-21T17:12:46.065Z,21.65
2019-02-21T17:15:16.386Z,17.25
2019-02-21T17:17:44.801Z,18.27
2019-02-21T17:20:18.306Z,17.30
2019-02-21T17:22:46.741Z,20.37
2019-02-21T17:25:15.977Z,18.60
2019-02-21T17:27:45.448Z,20.27
2019-02-21T17:30:18.040Z,21.62
2019-02-21T17:32:46.793Z,20.40
2019-02-21T17:35:15.641Z,21.62
2019-02-21T17:37:44.060Z,21.48
2019-02-21T17:40:15.554Z,21.70
2019-02-21T17:42:43.982Z,25.02
2019-02-21T17:45:13.141Z,21.65
2019-02-21T17:47:42.047Z,26.57
2019-02-21T17:50:13.464Z,24.23
2019-02-21T17:52:42.220Z,26.90
2019-02-21T17:55:11.470Z,26.50
2019-02-21T17:57:39.893Z,24.63
2019-02-21T18:00:21.603Z,23.32
2019-02-21T18:02:50.113Z,25.50
2019-02-21T18:05:18.520Z,28.12
2019-02-21T18:07:47.248Z,27.22
2019-02-21T18:10:16.949Z,27.02
2019-02-21T18:12:45.390Z,26.15
2019-02-21T18:15:15.367Z,27.65
2019-02-21T18:17:43.770Z,25.02
2019-02-21T18:20:14.352Z,27.58
2019-02-21T18:22:42.795Z,26.95
2019-02-21T18:25:29.298Z,23.67
2019-02-21T18:27:57.728Z,26.30
2019-02-21T18:30:26.130Z,24.20
2019-02-21T18:32:54.536Z,25.37
2019-02-21T18:35:23.049Z,23.95
2019-02-21T18:37:51.461Z,23.95
2019-02-21T18:40:22.460Z,24.25
2019-02-21T18:42:50.922Z,24.70
2019-02-21T18:45:19.417Z,23.50
2019-02-21T18:47:47.900Z,23.60
2019-02-21T18:50:16.318Z,23.27
2019-02-21T18:52:44.728Z,21.05
2019-02-21T18:55:13.483Z,20.70
2019-02-21T18:57:41.987Z,20.55
2019-02-21T19:00:19.467Z,21.20
2019-02-21T19:02:47.944Z,21.87
2019-02-21T19:05:16.416Z,22.00
2019-02-21T19:07:45.093Z,20.25
2019-02-21T19:10:16.901Z,22.10
2019-02-21T19:12:45.308Z,22.60
2019-02-21T19:15:15.373Z,22.90
2019-02-21T19:17:43.883Z,23.10
2019-02-21T19:20:17.126Z,22.73
2019-02-21T19:23:04.867Z,23.60
2019-02-21T19:25:33.553Z,24.10
2019-02-21T19:28:02.865Z,24.85
2019-02-21T19:30:40.696Z,24.72
2019-02-21T19:33:09.291Z,25.55
2019-02-21T19:35:37.718Z,24.95
2019-02-21T19:38:10.785Z,23.18
2019-02-21T19:40:39.026Z,23.55
2019-02-21T19:43:07.435Z,24.40
2019-02-21T19:45:35.855Z,22.58
2019-02-21T19:48:04.484Z,24.27
2019-02-21T19:50:33.369Z,24.15
2019-02-21T19:53:01.955Z,23.83
2019-02-21T19:55:30.896Z,24.52
2019-02-21T19:57:59.606Z,25.90
2019-02-21T20:00:30.226Z,26.05
2019-02-21T20:02:58.658Z,26.23
2019-02-21T20:05:27.521Z,27.30
2019-02-21T20:07:56.320Z,26.95
2019-02-21T20:10:25.300Z,28.17
2019-02-21T20:12:54.698Z,29.05
2019-02-21T20:15:24.088Z,29.40
2019-02-21T20:17:52.535Z,29.35
2019-02-21T20:20:28.851Z,30.08
2019-02-21T20:22:57.280Z,32.42
2019-02-21T20:25:25.707Z,30.52
2019-02-21T20:27:54.538Z,31.35
2019-02-21T20:30:23.499Z,34.00
2019-02-21T20:32:52.119Z,34.00
2019-02-21T20:35:22.593Z,33.80
2019-02-21T20:37:51.012Z,36.15
2019-02-21T20:40:19.776Z,34.73
2019-02-21T20:42:48.176Z,37.73
2019-02-21T20:45:16.664Z,37.98
2019-02-21T20:47:46.001Z,37.95
2019-02-21T20:50:14.699Z,38.33
2019-02-21T20:52:43.133Z,40.17
2019-02-21T20:55:12.222Z,38.23
2019-02-21T20:57:41.017Z,37.60
2019-02-21T21:00:13.825Z,38.35
2019-02-21T21:02:43.279Z,38.08
2019-02-21T21:05:15.009Z,40.65
2019-02-21T21:07:43.889Z,38.42
2019-02-21T21:10:15.278Z,41.53
2019-02-21T21:12:44.067Z,41.75
2019-02-21T21:15:14.028Z,41.53
2019-02-21T21:17:42.565Z,38.30
2019-02-21T21:20:17.383Z,38.70
2019-02-21T21:22:46.097Z,42.55
2019-02-21T21:25:15.981Z,39.85
2019-02-21T21:27:44.386Z,38.02
2019-02-21T21:30:14.656Z,38.28
2019-02-21T21:32:43.342Z,39.48
2019-02-21T21:35:11.836Z,38.15
2019-02-21T21:37:40.335Z,34.90
2019-02-21T21:40:15.368Z,35.63
2019-02-21T21:42:43.855Z,36.90
2019-02-21T21:45:16.807Z,37.60
2019-02-21T21:47:45.250Z,35.65
2019-02-21T21:50:18.562Z,37.93
2019-02-21T21:52:47.017Z,36.58
2019-02-21T21:55:15.501Z,36.03
2019-02-21T21:57:44.010Z,37.50
2019-02-21T22:00:23.591Z,36.70
2019-02-21T22:02:52.011Z,39.10
2019-02-21T22:05:22.462Z,37.45
2019-02-21T22:07:51.229Z,38.13
2019-02-21T22:10:19.761Z,37.63
2019-02-21T22:12:48.270Z,38.92
2019-02-21T22:15:19.921Z,37.78
2019-02-21T22:17:48.405Z,38.83
2019-02-21T22:20:17.083Z,38.58
2019-02-21T22:22:45.511Z,40.73
2019-02-21T22:25:14.552Z,40.05
2019-02-21T22:27:42.991Z,41.08
2019-02-21T22:30:19.773Z,39.78
2019-02-21T22:32:48.220Z,40.15
2019-02-21T22:35:17.022Z,39.70
2019-02-21T22:37:45.491Z,40.25
2019-02-21T22:40:18.051Z,40.80
2019-02-21T22:42:46.823Z,39.35
2019-02-21T22:45:15.626Z,41.53
2019-02-21T22:47:44.319Z,42.20
2019-02-21T22:50:17.397Z,40.88
2019-02-21T22:52:45.832Z,41.73
2019-02-21T22:55:14.565Z,41.00
2019-02-21T22:57:42.977Z,41.70
2019-02-21T23:00:53.818Z,43.08
2019-02-21T23:03:23.990Z,42.00
2019-02-21T23:06:13.492Z,41.35
2019-02-21T23:08:45.259Z,41.95
2019-02-21T23:11:13.914Z,42.88
2019-02-21T23:13:42.408Z,41.98
2019-02-21T23:16:10.916Z,46.18
2019-02-21T23:18:39.603Z,42.78
2019-02-21T23:21:08.036Z,43.80
2019-02-21T23:23:36.523Z,42.53
2019-02-21T23:26:05.250Z,44.65
2019-02-21T23:28:33.672Z,41.13
2019-02-21T23:31:02.098Z,40.38
2019-02-21T23:33:32.078Z,40.45
2019-02-21T23:36:00.502Z,42.27
2019-02-21T23:38:28.914Z,41.02
2019-02-21T23:40:57.670Z,42.43
2019-02-21T23:43:26.077Z,43.35
2019-02-21T23:45:54.835Z,41.75
2019-02-21T23:48:23.532Z,38.92
2019-02-21T23:50:51.952Z,40.50
2019-02-21T23:53:20.369Z,40.58
2019-02-21T23:55:48.790Z,40.48
2019-02-21T23:58:17.228Z,38.38
